sensor_id;sensor_type;location;lat;lon;timestamp;P1;durP1;ratioP1;P2;durP2;ratioP2
41685;SDS011;27370;42.764;23.432;2023-04-03T00:01:23;16.42;;;9.90;;
41685;SDS011;27370;42.764;23.432;2023-04-03T00:03:49;17.45;;;11.57;;
41685;SDS011;27370;42.764;23.432;2023-04-03T00:06:15;19.13;;;11.55;;
41685;SDS011;27370;42.764;23.432;2023-04-03T00:08:40;24.80;;;11.88;;
41685;SDS011;27370;42.764;23.432;2023-04-03T00:11:06;24.90;;;12.85;;
41685;SDS011;27370;42.764;23.432;2023-04-03T00:13:31;26.45;;;14.90;;
41685;SDS011;27370;42.764;23.432;2023-04-03T00:15:57;24.13;;;14.52;;
41685;SDS011;27370;42.764;23.432;2023-04-03T00:18:23;20.02;;;12.43;;
41685;SDS011;27370;42.764;23.432;2023-04-03T00:20:49;24.15;;;13.25;;
41685;SDS011;27370;42.764;23.432;2023-04-03T00:23:14;23.52;;;12.55;;
41685;SDS011;27370;42.764;23.432;2023-04-03T00:25:40;19.65;;;12.02;;
41685;SDS011;27370;42.764;23.432;2023-04-03T00:28:06;20.38;;;12.38;;
41685;SDS011;27370;42.764;23.432;2023-04-03T00:30:32;20.38;;;12.60;;
41685;SDS011;27370;42.764;23.432;2023-04-03T00:32:58;22.08;;;13.13;;
41685;SDS011;27370;42.764;23.432;2023-04-03T00:35:24;19.65;;;12.02;;
41685;SDS011;27370;42.764;23.432;2023-04-03T00:37:51;21.17;;;12.38;;
41685;SDS011;27370;42.764;23.432;2023-04-03T00:40:18;24.75;;;14.38;;
41685;SDS011;27370;42.764;23.432;2023-04-03T00:42:45;25.95;;;14.13;;
41685;SDS011;27370;42.764;23.432;2023-04-03T00:47:44;26.00;;;13.68;;
41685;SDS011;27370;42.764;23.432;2023-04-03T00:50:10;22.50;;;13.32;;
41685;SDS011;27370;42.764;23.432;2023-04-03T00:52:36;22.42;;;13.55;;
41685;SDS011;27370;42.764;23.432;2023-04-03T00:55:04;23.80;;;12.77;;
41685;SDS011;27370;42.764;23.432;2023-04-03T00:57:31;21.75;;;12.50;;
41685;SDS011;27370;42.764;23.432;2023-04-03T00:59:59;20.13;;;12.68;;
41685;SDS011;27370;42.764;23.432;2023-04-03T01:02:31;21.25;;;12.15;;
41685;SDS011;27370;42.764;23.432;2023-04-03T01:04:57;21.60;;;12.73;;
41685;SDS011;27370;42.764;23.432;2023-04-03T01:07:23;20.58;;;12.68;;
41685;SDS011;27370;42.764;23.432;2023-04-03T01:09:54;21.52;;;12.63;;
41685;SDS011;27370;42.764;23.432;2023-04-03T01:12:24;23.27;;;12.88;;
41685;SDS011;27370;42.764;23.432;2023-04-03T01:14:53;23.27;;;13.35;;
41685;SDS011;27370;42.764;23.432;2023-04-03T01:17:42;19.17;;;12.02;;
41685;SDS011;27370;42.764;23.432;2023-04-03T01:25:26;17.38;;;10.52;;
41685;SDS011;27370;42.764;23.432;2023-04-03T01:27:53;19.25;;;11.43;;
41685;SDS011;27370;42.764;23.432;2023-04-03T01:30:19;18.48;;;10.85;;
41685;SDS011;27370;42.764;23.432;2023-04-03T01:32:48;19.73;;;10.38;;
41685;SDS011;27370;42.764;23.432;2023-04-03T01:35:14;18.65;;;10.95;;
41685;SDS011;27370;42.764;23.432;2023-04-03T01:37:40;17.92;;;11.05;;
41685;SDS011;27370;42.764;23.432;2023-04-03T01:40:05;19.60;;;10.27;;
41685;SDS011;27370;42.764;23.432;2023-04-03T01:42:32;13.98;;;8.60;;
41685;SDS011;27370;42.764;23.432;2023-04-03T01:44:58;16.13;;;9.10;;
41685;SDS011;27370;42.764;23.432;2023-04-03T01:47:24;16.25;;;9.35;;
41685;SDS011;27370;42.764;23.432;2023-04-03T01:49:49;16.35;;;9.27;;
41685;SDS011;27370;42.764;23.432;2023-04-03T01:52:15;14.32;;;8.20;;
41685;SDS011;27370;42.764;23.432;2023-04-03T01:54:40;14.02;;;7.53;;
41685;SDS011;27370;42.764;23.432;2023-04-03T01:57:06;11.93;;;6.20;;
41685;SDS011;27370;42.764;23.432;2023-04-03T01:59:31;10.00;;;5.00;;
41685;SDS011;27370;42.764;23.432;2023-04-03T02:01:57;8.75;;;4.70;;
41685;SDS011;27370;42.764;23.432;2023-04-03T02:04:22;11.35;;;5.38;;
41685;SDS011;27370;42.764;23.432;2023-04-03T02:06:48;10.68;;;5.68;;
41685;SDS011;27370;42.764;23.432;2023-04-03T02:09:13;11.13;;;6.00;;
41685;SDS011;27370;42.764;23.432;2023-04-03T02:11:39;10.98;;;5.68;;
41685;SDS011;27370;42.764;23.432;2023-04-03T02:14:04;11.10;;;6.00;;
41685;SDS011;27370;42.764;23.432;2023-04-03T02:16:30;13.30;;;6.60;;
41685;SDS011;27370;42.764;23.432;2023-04-03T02:18:56;12.93;;;6.40;;
41685;SDS011;27370;42.764;23.432;2023-04-03T02:21:22;12.68;;;6.78;;
41685;SDS011;27370;42.764;23.432;2023-04-03T02:23:47;13.07;;;6.50;;
41685;SDS011;27370;42.764;23.432;2023-04-03T02:26:13;12.73;;;6.70;;
41685;SDS011;27370;42.764;23.432;2023-04-03T02:28:44;16.02;;;8.77;;
41685;SDS011;27370;42.764;23.432;2023-04-03T02:31:09;19.35;;;11.60;;
41685;SDS011;27370;42.764;23.432;2023-04-03T02:33:37;19.63;;;11.23;;
41685;SDS011;27370;42.764;23.432;2023-04-03T02:36:06;21.42;;;11.35;;
41685;SDS011;27370;42.764;23.432;2023-04-03T02:38:33;20.67;;;10.88;;
41685;SDS011;27370;42.764;23.432;2023-04-03T02:40:59;20.20;;;10.57;;
41685;SDS011;27370;42.764;23.432;2023-04-03T02:43:31;16.75;;;10.18;;
41685;SDS011;27370;42.764;23.432;2023-04-03T02:45:57;15.35;;;9.00;;
41685;SDS011;27370;42.764;23.432;2023-04-03T02:48:23;15.13;;;8.98;;
41685;SDS011;27370;42.764;23.432;2023-04-03T02:50:49;14.00;;;8.43;;
41685;SDS011;27370;42.764;23.432;2023-04-03T02:53:15;15.63;;;8.50;;
41685;SDS011;27370;42.764;23.432;2023-04-03T02:55:41;17.60;;;9.18;;
41685;SDS011;27370;42.764;23.432;2023-04-03T02:58:07;16.85;;;8.70;;
41685;SDS011;27370;42.764;23.432;2023-04-03T03:00:33;15.18;;;8.73;;
41685;SDS011;27370;42.764;23.432;2023-04-03T03:02:59;13.55;;;8.10;;
41685;SDS011;27370;42.764;23.432;2023-04-03T03:05:25;15.02;;;8.45;;
41685;SDS011;27370;42.764;23.432;2023-04-03T03:07:51;16.33;;;9.05;;
41685;SDS011;27370;42.764;23.432;2023-04-03T03:10:17;15.80;;;9.05;;
41685;SDS011;27370;42.764;23.432;2023-04-03T03:12:44;14.00;;;8.70;;
41685;SDS011;27370;42.764;23.432;2023-04-03T03:15:09;16.10;;;8.82;;
41685;SDS011;27370;42.764;23.432;2023-04-03T03:17:35;14.43;;;8.98;;
41685;SDS011;27370;42.764;23.432;2023-04-03T03:20:02;14.95;;;8.50;;
41685;SDS011;27370;42.764;23.432;2023-04-03T03:22:28;15.77;;;9.73;;
41685;SDS011;27370;42.764;23.432;2023-04-03T03:24:54;14.68;;;8.40;;
41685;SDS011;27370;42.764;23.432;2023-04-03T03:27:20;16.95;;;8.93;;
41685;SDS011;27370;42.764;23.432;2023-04-03T03:29:45;16.70;;;9.20;;
41685;SDS011;27370;42.764;23.432;2023-04-03T03:32:12;22.95;;;12.43;;
41685;SDS011;27370;42.764;23.432;2023-04-03T03:34:38;20.30;;;12.82;;
41685;SDS011;27370;42.764;23.432;2023-04-03T03:37:04;18.13;;;10.50;;
41685;SDS011;27370;42.764;23.432;2023-04-03T03:39:30;16.20;;;9.30;;
41685;SDS011;27370;42.764;23.432;2023-04-03T03:41:55;15.30;;;9.38;;
41685;SDS011;27370;42.764;23.432;2023-04-03T03:44:21;15.88;;;9.25;;
41685;SDS011;27370;42.764;23.432;2023-04-03T03:46:47;18.52;;;10.35;;
41685;SDS011;27370;42.764;23.432;2023-04-03T03:49:12;19.13;;;11.55;;
41685;SDS011;27370;42.764;23.432;2023-04-03T03:51:39;19.08;;;12.93;;
41685;SDS011;27370;42.764;23.432;2023-04-03T03:54:06;17.23;;;10.52;;
41685;SDS011;27370;42.764;23.432;2023-04-03T03:56:33;18.25;;;9.73;;
41685;SDS011;27370;42.764;23.432;2023-04-03T03:58:59;14.32;;;7.43;;
41685;SDS011;27370;42.764;23.432;2023-04-03T04:01:25;13.40;;;7.53;;
41685;SDS011;27370;42.764;23.432;2023-04-03T04:03:50;12.95;;;6.53;;
41685;SDS011;27370;42.764;23.432;2023-04-03T04:06:19;13.32;;;6.63;;
41685;SDS011;27370;42.764;23.432;2023-04-03T04:08:46;13.30;;;7.03;;
41685;SDS011;27370;42.764;23.432;2023-04-03T04:11:13;13.68;;;7.43;;
41685;SDS011;27370;42.764;23.432;2023-04-03T04:13:40;15.30;;;7.40;;
41685;SDS011;27370;42.764;23.432;2023-04-03T04:16:07;18.00;;;7.47;;
41685;SDS011;27370;42.764;23.432;2023-04-03T04:18:33;11.57;;;6.38;;
41685;SDS011;27370;42.764;23.432;2023-04-03T04:20:58;12.45;;;6.22;;
41685;SDS011;27370;42.764;23.432;2023-04-03T04:23:24;15.60;;;6.95;;
41685;SDS011;27370;42.764;23.432;2023-04-03T04:25:50;13.25;;;6.80;;
41685;SDS011;27370;42.764;23.432;2023-04-03T04:28:17;12.60;;;7.00;;
41685;SDS011;27370;42.764;23.432;2023-04-03T04:30:45;11.77;;;6.18;;
41685;SDS011;27370;42.764;23.432;2023-04-03T04:33:11;11.27;;;5.75;;
41685;SDS011;27370;42.764;23.432;2023-04-03T04:35:41;9.68;;;4.80;;
41685;SDS011;27370;42.764;23.432;2023-04-03T04:38:08;12.43;;;5.43;;
41685;SDS011;27370;42.764;23.432;2023-04-03T04:40:33;9.55;;;4.95;;
41685;SDS011;27370;42.764;23.432;2023-04-03T04:42:59;10.60;;;5.05;;
41685;SDS011;27370;42.764;23.432;2023-04-03T04:45:25;10.63;;;4.95;;
41685;SDS011;27370;42.764;23.432;2023-04-03T04:47:51;9.65;;;4.75;;
41685;SDS011;27370;42.764;23.432;2023-04-03T04:50:18;8.70;;;4.25;;
41685;SDS011;27370;42.764;23.432;2023-04-03T04:52:45;11.32;;;5.38;;
41685;SDS011;27370;42.764;23.432;2023-04-03T04:55:10;9.43;;;4.97;;
41685;SDS011;27370;42.764;23.432;2023-04-03T04:57:36;11.48;;;5.40;;
41685;SDS011;27370;42.764;23.432;2023-04-03T05:00:04;10.98;;;5.30;;
41685;SDS011;27370;42.764;23.432;2023-04-03T05:02:30;27.10;;;7.57;;
41685;SDS011;27370;42.764;23.432;2023-04-03T05:04:56;11.88;;;6.20;;
41685;SDS011;27370;42.764;23.432;2023-04-03T05:07:26;14.60;;;7.80;;
41685;SDS011;27370;42.764;23.432;2023-04-03T05:09:52;13.25;;;6.40;;
41685;SDS011;27370;42.764;23.432;2023-04-03T05:12:17;11.93;;;6.18;;
41685;SDS011;27370;42.764;23.432;2023-04-03T05:14:49;14.80;;;6.47;;
41685;SDS011;27370;42.764;23.432;2023-04-03T05:17:15;14.75;;;7.82;;
41685;SDS011;27370;42.764;23.432;2023-04-03T05:19:46;21.85;;;10.98;;
41685;SDS011;27370;42.764;23.432;2023-04-03T05:22:11;35.95;;;17.92;;
41685;SDS011;27370;42.764;23.432;2023-04-03T05:24:37;36.97;;;19.15;;
41685;SDS011;27370;42.764;23.432;2023-04-03T05:27:03;43.83;;;22.73;;
41685;SDS011;27370;42.764;23.432;2023-04-03T05:29:31;48.75;;;25.48;;
41685;SDS011;27370;42.764;23.432;2023-04-03T05:31:59;52.42;;;25.70;;
41685;SDS011;27370;42.764;23.432;2023-04-03T05:34:25;58.22;;;27.95;;
41685;SDS011;27370;42.764;23.432;2023-04-03T05:36:52;85.50;;;37.83;;
41685;SDS011;27370;42.764;23.432;2023-04-03T05:39:18;80.30;;;35.38;;
41685;SDS011;27370;42.764;23.432;2023-04-03T05:41:46;79.15;;;34.70;;
41685;SDS011;27370;42.764;23.432;2023-04-03T05:44:11;58.53;;;25.90;;
41685;SDS011;27370;42.764;23.432;2023-04-03T05:46:37;53.72;;;29.33;;
41685;SDS011;27370;42.764;23.432;2023-04-03T05:49:05;51.78;;;31.02;;
41685;SDS011;27370;42.764;23.432;2023-04-03T05:51:35;58.60;;;31.55;;
41685;SDS011;27370;42.764;23.432;2023-04-03T05:54:31;59.38;;;31.20;;
41685;SDS011;27370;42.764;23.432;2023-04-03T05:57:25;51.13;;;26.83;;
41685;SDS011;27370;42.764;23.432;2023-04-03T05:59:51;45.10;;;24.15;;
41685;SDS011;27370;42.764;23.432;2023-04-03T06:02:19;34.85;;;20.20;;
41685;SDS011;27370;42.764;23.432;2023-04-03T06:04:47;31.63;;;17.00;;
41685;SDS011;27370;42.764;23.432;2023-04-03T06:07:17;35.83;;;17.23;;
41685;SDS011;27370;42.764;23.432;2023-04-03T06:09:48;34.72;;;18.92;;
41685;SDS011;27370;42.764;23.432;2023-04-03T06:12:16;41.35;;;18.73;;
41685;SDS011;27370;42.764;23.432;2023-04-03T06:14:42;19.45;;;11.02;;
41685;SDS011;27370;42.764;23.432;2023-04-03T06:17:08;17.52;;;9.80;;
41685;SDS011;27370;42.764;23.432;2023-04-03T06:19:34;17.98;;;9.68;;
41685;SDS011;27370;42.764;23.432;2023-04-03T06:22:00;15.63;;;8.82;;
41685;SDS011;27370;42.764;23.432;2023-04-03T06:24:26;15.95;;;9.65;;
41685;SDS011;27370;42.764;23.432;2023-04-03T06:26:52;20.75;;;12.23;;
41685;SDS011;27370;42.764;23.432;2023-04-03T06:29:18;17.23;;;10.10;;
41685;SDS011;27370;42.764;23.432;2023-04-03T06:31:44;11.63;;;5.65;;
41685;SDS011;27370;42.764;23.432;2023-04-03T06:34:10;17.02;;;10.15;;
41685;SDS011;27370;42.764;23.432;2023-04-03T06:36:37;15.15;;;9.35;;
41685;SDS011;27370;42.764;23.432;2023-04-03T06:39:02;17.05;;;10.23;;
41685;SDS011;27370;42.764;23.432;2023-04-03T06:41:28;16.88;;;9.85;;
41685;SDS011;27370;42.764;23.432;2023-04-03T06:43:55;15.88;;;7.93;;
41685;SDS011;27370;42.764;23.432;2023-04-03T06:46:24;14.93;;;8.57;;
41685;SDS011;27370;42.764;23.432;2023-04-03T06:48:51;14.98;;;8.45;;
41685;SDS011;27370;42.764;23.432;2023-04-03T06:53:53;22.63;;;10.90;;
41685;SDS011;27370;42.764;23.432;2023-04-03T06:56:21;20.63;;;11.13;;
41685;SDS011;27370;42.764;23.432;2023-04-03T06:58:47;24.00;;;11.73;;
41685;SDS011;27370;42.764;23.432;2023-04-03T07:01:13;19.40;;;11.32;;
41685;SDS011;27370;42.764;23.432;2023-04-03T07:03:39;19.60;;;11.65;;
41685;SDS011;27370;42.764;23.432;2023-04-03T07:06:06;20.83;;;11.38;;
41685;SDS011;27370;42.764;23.432;2023-04-03T07:08:32;16.38;;;10.10;;
41685;SDS011;27370;42.764;23.432;2023-04-03T07:10:59;17.98;;;10.80;;
41685;SDS011;27370;42.764;23.432;2023-04-03T07:13:25;18.13;;;11.38;;
41685;SDS011;27370;42.764;23.432;2023-04-03T07:15:51;16.30;;;10.45;;
41685;SDS011;27370;42.764;23.432;2023-04-03T07:18:17;17.02;;;10.88;;
41685;SDS011;27370;42.764;23.432;2023-04-03T07:20:43;16.23;;;10.38;;
41685;SDS011;27370;42.764;23.432;2023-04-03T07:23:09;18.45;;;10.32;;
41685;SDS011;27370;42.764;23.432;2023-04-03T07:25:35;17.67;;;9.63;;
41685;SDS011;27370;42.764;23.432;2023-04-03T07:28:01;15.82;;;9.48;;
41685;SDS011;27370;42.764;23.432;2023-04-03T07:30:27;14.90;;;9.13;;
41685;SDS011;27370;42.764;23.432;2023-04-03T07:32:52;15.07;;;8.23;;
41685;SDS011;27370;42.764;23.432;2023-04-03T07:35:18;14.57;;;7.88;;
41685;SDS011;27370;42.764;23.432;2023-04-03T07:37:44;15.57;;;7.95;;
41685;SDS011;27370;42.764;23.432;2023-04-03T07:40:10;14.10;;;8.50;;
41685;SDS011;27370;42.764;23.432;2023-04-03T07:42:36;14.45;;;7.35;;
41685;SDS011;27370;42.764;23.432;2023-04-03T07:45:02;13.52;;;7.55;;
41685;SDS011;27370;42.764;23.432;2023-04-03T07:47:29;10.52;;;5.70;;
41685;SDS011;27370;42.764;23.432;2023-04-03T07:49:56;10.95;;;6.18;;
41685;SDS011;27370;42.764;23.432;2023-04-03T07:52:22;10.55;;;5.53;;
41685;SDS011;27370;42.764;23.432;2023-04-03T07:54:48;11.73;;;6.00;;
41685;SDS011;27370;42.764;23.432;2023-04-03T07:57:13;11.65;;;6.38;;
41685;SDS011;27370;42.764;23.432;2023-04-03T07:59:39;9.55;;;5.15;;
41685;SDS011;27370;42.764;23.432;2023-04-03T08:02:08;10.57;;;5.07;;
41685;SDS011;27370;42.764;23.432;2023-04-03T08:04:37;10.73;;;5.47;;
41685;SDS011;27370;42.764;23.432;2023-04-03T08:07:02;12.38;;;6.10;;
41685;SDS011;27370;42.764;23.432;2023-04-03T08:09:28;11.48;;;6.45;;
41685;SDS011;27370;42.764;23.432;2023-04-03T08:11:53;15.10;;;6.60;;
41685;SDS011;27370;42.764;23.432;2023-04-03T08:14:19;12.52;;;5.75;;
41685;SDS011;27370;42.764;23.432;2023-04-03T08:16:46;11.27;;;5.70;;
41685;SDS011;27370;42.764;23.432;2023-04-03T08:19:13;11.10;;;5.57;;
41685;SDS011;27370;42.764;23.432;2023-04-03T08:21:40;10.32;;;4.65;;
41685;SDS011;27370;42.764;23.432;2023-04-03T08:24:09;11.82;;;5.07;;
41685;SDS011;27370;42.764;23.432;2023-04-03T08:26:35;10.43;;;5.70;;
41685;SDS011;27370;42.764;23.432;2023-04-03T08:29:00;9.82;;;4.90;;
41685;SDS011;27370;42.764;23.432;2023-04-03T08:31:27;9.80;;;4.47;;
41685;SDS011;27370;42.764;23.432;2023-04-03T08:33:52;13.90;;;4.95;;
41685;SDS011;27370;42.764;23.432;2023-04-03T08:38:48;11.38;;;5.30;;
41685;SDS011;27370;42.764;23.432;2023-04-03T08:41:34;14.85;;;7.80;;
41685;SDS011;27370;42.764;23.432;2023-04-03T08:49:51;9.75;;;4.95;;
41685;SDS011;27370;42.764;23.432;2023-04-03T08:57:47;9.77;;;4.90;;
41685;SDS011;27370;42.764;23.432;2023-04-03T09:00:19;9.75;;;5.00;;
41685;SDS011;27370;42.764;23.432;2023-04-03T09:02:48;15.95;;;8.23;;
41685;SDS011;27370;42.764;23.432;2023-04-03T09:05:19;11.45;;;5.10;;
41685;SDS011;27370;42.764;23.432;2023-04-03T09:08:10;13.20;;;7.32;;
41685;SDS011;27370;42.764;23.432;2023-04-03T09:11:07;9.57;;;4.63;;
41685;SDS011;27370;42.764;23.432;2023-04-03T09:18:57;8.73;;;4.35;;
41685;SDS011;27370;42.764;23.432;2023-04-03T09:21:37;7.07;;;3.15;;
41685;SDS011;27370;42.764;23.432;2023-04-03T09:24:04;8.60;;;3.65;;
41685;SDS011;27370;42.764;23.432;2023-04-03T09:26:41;12.70;;;4.38;;
41685;SDS011;27370;42.764;23.432;2023-04-03T09:29:20;9.88;;;4.70;;
41685;SDS011;27370;42.764;23.432;2023-04-03T09:31:48;7.15;;;3.72;;
41685;SDS011;27370;42.764;23.432;2023-04-03T09:34:28;8.50;;;4.13;;
41685;SDS011;27370;42.764;23.432;2023-04-03T09:36:57;8.23;;;3.78;;
41685;SDS011;27370;42.764;23.432;2023-04-03T09:39:32;11.52;;;4.45;;
41685;SDS011;27370;42.764;23.432;2023-04-03T09:42:20;14.07;;;5.50;;
41685;SDS011;27370;42.764;23.432;2023-04-03T09:44:55;9.85;;;4.95;;
41685;SDS011;27370;42.764;23.432;2023-04-03T09:49:49;9.65;;;4.22;;
41685;SDS011;27370;42.764;23.432;2023-04-03T09:52:19;8.90;;;4.53;;
41685;SDS011;27370;42.764;23.432;2023-04-03T09:54:47;11.18;;;4.82;;
41685;SDS011;27370;42.764;23.432;2023-04-03T09:57:13;9.63;;;4.60;;
41685;SDS011;27370;42.764;23.432;2023-04-03T09:59:41;9.50;;;4.60;;
41685;SDS011;27370;42.764;23.432;2023-04-03T10:02:21;10.55;;;4.20;;
41685;SDS011;27370;42.764;23.432;2023-04-03T10:04:53;8.18;;;3.97;;
41685;SDS011;27370;42.764;23.432;2023-04-03T10:09:57;9.85;;;4.55;;
41685;SDS011;27370;42.764;23.432;2023-04-03T10:12:24;8.05;;;4.00;;
41685;SDS011;27370;42.764;23.432;2023-04-03T10:39:22;12.50;;;4.78;;
41685;SDS011;27370;42.764;23.432;2023-04-03T10:42:35;9.73;;;5.22;;
41685;SDS011;27370;42.764;23.432;2023-04-03T10:45:22;11.38;;;4.78;;
41685;SDS011;27370;42.764;23.432;2023-04-03T10:51:23;12.18;;;5.25;;
41685;SDS011;27370;42.764;23.432;2023-04-03T10:53:52;11.35;;;4.40;;
41685;SDS011;27370;42.764;23.432;2023-04-03T10:59:27;8.85;;;4.10;;
41685;SDS011;27370;42.764;23.432;2023-04-03T11:02:01;8.25;;;3.88;;
41685;SDS011;27370;42.764;23.432;2023-04-03T11:04:33;10.32;;;4.00;;
41685;SDS011;27370;42.764;23.432;2023-04-03T11:07:02;8.98;;;4.30;;
41685;SDS011;27370;42.764;23.432;2023-04-03T11:09:35;13.13;;;6.43;;
41685;SDS011;27370;42.764;23.432;2023-04-03T11:12:09;10.80;;;5.07;;
41685;SDS011;27370;42.764;23.432;2023-04-03T11:14:38;12.45;;;5.28;;
41685;SDS011;27370;42.764;23.432;2023-04-03T11:19:47;9.27;;;4.22;;
41685;SDS011;27370;42.764;23.432;2023-04-03T11:22:27;9.10;;;4.25;;
41685;SDS011;27370;42.764;23.432;2023-04-03T11:25:03;11.57;;;3.72;;
41685;SDS011;27370;42.764;23.432;2023-04-03T11:27:42;9.18;;;3.55;;
41685;SDS011;27370;42.764;23.432;2023-04-03T11:30:23;11.02;;;4.40;;
41685;SDS011;27370;42.764;23.432;2023-04-03T11:35:24;10.85;;;5.00;;
41685;SDS011;27370;42.764;23.432;2023-04-03T11:37:52;13.45;;;7.15;;
41685;SDS011;27370;42.764;23.432;2023-04-03T11:40:20;13.13;;;6.60;;
41685;SDS011;27370;42.764;23.432;2023-04-03T11:42:49;18.20;;;9.82;;
41685;SDS011;27370;42.764;23.432;2023-04-03T12:13:37;11.13;;;7.10;;
41685;SDS011;27370;42.764;23.432;2023-04-03T12:16:05;12.18;;;6.85;;
41685;SDS011;27370;42.764;23.432;2023-04-03T12:18:40;12.15;;;7.20;;
41685;SDS011;27370;42.764;23.432;2023-04-03T12:21:15;16.70;;;12.00;;
41685;SDS011;27370;42.764;23.432;2023-04-03T12:23:57;16.05;;;12.27;;
41685;SDS011;27370;42.764;23.432;2023-04-03T12:40:31;11.75;;;6.68;;
41685;SDS011;27370;42.764;23.432;2023-04-03T12:43:05;11.13;;;5.90;;
41685;SDS011;27370;42.764;23.432;2023-04-03T12:48:30;0.50;;;0.50;;
41685;SDS011;27370;42.764;23.432;2023-04-03T12:50:59;0.35;;;0.35;;
41685;SDS011;27370;42.764;23.432;2023-04-03T12:53:28;0.10;;;0.10;;
41685;SDS011;27370;42.764;23.432;2023-04-03T12:58:46;0.28;;;0.28;;
41685;SDS011;27370;42.764;23.432;2023-04-03T13:01:16;0.20;;;0.20;;
41685;SDS011;27370;42.764;23.432;2023-04-03T13:03:44;0.32;;;0.32;;
41685;SDS011;27370;42.764;23.432;2023-04-03T13:06:21;0.10;;;0.10;;
41685;SDS011;27370;42.764;23.432;2023-04-03T13:08:54;0.32;;;0.32;;
41685;SDS011;27370;42.764;23.432;2023-04-03T13:11:23;0.20;;;0.20;;
41685;SDS011;27370;42.764;23.432;2023-04-03T13:13:58;0.20;;;0.20;;
41685;SDS011;27370;42.764;23.432;2023-04-03T13:16:25;0.30;;;0.30;;
41685;SDS011;27370;42.764;23.432;2023-04-03T13:18:54;0.22;;;0.22;;
41685;SDS011;27370;42.764;23.432;2023-04-03T13:21:21;1.02;;;0.55;;
41685;SDS011;27370;42.764;23.432;2023-04-03T13:23:51;0.47;;;0.47;;
41685;SDS011;27370;42.764;23.432;2023-04-03T13:28:47;0.35;;;0.35;;
41685;SDS011;27370;42.764;23.432;2023-04-03T13:31:19;0.20;;;0.20;;
41685;SDS011;27370;42.764;23.432;2023-04-03T13:36:38;0.22;;;0.22;;
41685;SDS011;27370;42.764;23.432;2023-04-03T13:42:03;0.60;;;0.45;;
41685;SDS011;27370;42.764;23.432;2023-04-03T13:44:48;0.85;;;0.80;;
41685;SDS011;27370;42.764;23.432;2023-04-03T13:47:18;2.90;;;1.52;;
41685;SDS011;27370;42.764;23.432;2023-04-03T13:49:59;0.50;;;0.50;;
41685;SDS011;27370;42.764;23.432;2023-04-03T13:52:32;0.47;;;0.47;;
41685;SDS011;27370;42.764;23.432;2023-04-03T13:57:55;0.52;;;0.52;;
41685;SDS011;27370;42.764;23.432;2023-04-03T14:00:28;1.48;;;0.52;;
41685;SDS011;27370;42.764;23.432;2023-04-03T14:03:02;0.50;;;0.50;;
41685;SDS011;27370;42.764;23.432;2023-04-03T14:05:36;0.20;;;0.20;;
41685;SDS011;27370;42.764;23.432;2023-04-03T14:08:02;3.50;;;2.80;;
41685;SDS011;27370;42.764;23.432;2023-04-03T14:10:28;2.58;;;1.70;;
41685;SDS011;27370;42.764;23.432;2023-04-03T14:12:55;1.85;;;1.25;;
41685;SDS011;27370;42.764;23.432;2023-04-03T14:15:22;0.98;;;0.73;;
41685;SDS011;27370;42.764;23.432;2023-04-03T14:17:51;5.20;;;2.15;;
41685;SDS011;27370;42.764;23.432;2023-04-03T14:20:17;0.98;;;0.68;;
41685;SDS011;27370;42.764;23.432;2023-04-03T14:22:45;2.22;;;1.63;;
41685;SDS011;27370;42.764;23.432;2023-04-03T14:25:11;4.72;;;3.35;;
41685;SDS011;27370;42.764;23.432;2023-04-03T14:27:38;1.17;;;0.95;;
41685;SDS011;27370;42.764;23.432;2023-04-03T14:30:08;0.98;;;0.75;;
41685;SDS011;27370;42.764;23.432;2023-04-03T14:32:40;0.93;;;0.85;;
41685;SDS011;27370;42.764;23.432;2023-04-03T14:35:07;1.38;;;1.23;;
41685;SDS011;27370;42.764;23.432;2023-04-03T14:37:33;0.68;;;0.68;;
41685;SDS011;27370;42.764;23.432;2023-04-03T14:39:59;1.38;;;1.10;;
41685;SDS011;27370;42.764;23.432;2023-04-03T14:42:27;0.43;;;0.43;;
41685;SDS011;27370;42.764;23.432;2023-04-03T14:44:56;0.63;;;0.60;;
41685;SDS011;27370;42.764;23.432;2023-04-03T14:47:26;1.17;;;0.55;;
41685;SDS011;27370;42.764;23.432;2023-04-03T14:49:54;0.40;;;0.40;;
41685;SDS011;27370;42.764;23.432;2023-04-03T14:52:21;0.75;;;0.75;;
41685;SDS011;27370;42.764;23.432;2023-04-03T14:54:53;0.63;;;0.30;;
41685;SDS011;27370;42.764;23.432;2023-04-03T14:57:19;0.40;;;0.40;;
41685;SDS011;27370;42.764;23.432;2023-04-03T14:59:49;0.88;;;0.73;;
41685;SDS011;27370;42.764;23.432;2023-04-03T15:02:25;0.75;;;0.73;;
41685;SDS011;27370;42.764;23.432;2023-04-03T15:05:02;0.25;;;0.25;;
41685;SDS011;27370;42.764;23.432;2023-04-03T15:07:30;1.17;;;0.60;;
41685;SDS011;27370;42.764;23.432;2023-04-03T15:10:00;0.50;;;0.50;;
41685;SDS011;27370;42.764;23.432;2023-04-03T15:12:28;0.55;;;0.55;;
41685;SDS011;27370;42.764;23.432;2023-04-03T15:14:54;0.52;;;0.50;;
41685;SDS011;27370;42.764;23.432;2023-04-03T15:17:21;1.90;;;1.52;;
41685;SDS011;27370;42.764;23.432;2023-04-03T15:19:48;0.65;;;0.63;;
41685;SDS011;27370;42.764;23.432;2023-04-03T15:22:14;0.38;;;0.38;;
41685;SDS011;27370;42.764;23.432;2023-04-03T15:24:41;1.75;;;1.17;;
41685;SDS011;27370;42.764;23.432;2023-04-03T15:27:07;2.85;;;1.42;;
41685;SDS011;27370;42.764;23.432;2023-04-03T15:29:34;0.52;;;0.52;;
41685;SDS011;27370;42.764;23.432;2023-04-03T15:31:59;2.72;;;1.20;;
41685;SDS011;27370;42.764;23.432;2023-04-03T15:34:25;0.70;;;0.70;;
41685;SDS011;27370;42.764;23.432;2023-04-03T15:36:51;3.20;;;2.20;;
41685;SDS011;27370;42.764;23.432;2023-04-03T15:39:17;0.47;;;0.47;;
41685;SDS011;27370;42.764;23.432;2023-04-03T15:41:43;0.47;;;0.47;;
41685;SDS011;27370;42.764;23.432;2023-04-03T15:44:10;3.17;;;0.73;;
41685;SDS011;27370;42.764;23.432;2023-04-03T15:46:37;0.70;;;0.70;;
41685;SDS011;27370;42.764;23.432;2023-04-03T15:49:03;1.75;;;1.58;;
41685;SDS011;27370;42.764;23.432;2023-04-03T15:51:30;0.57;;;0.57;;
41685;SDS011;27370;42.764;23.432;2023-04-03T15:53:56;0.82;;;0.80;;
41685;SDS011;27370;42.764;23.432;2023-04-03T15:56:21;0.40;;;0.40;;
41685;SDS011;27370;42.764;23.432;2023-04-03T15:58:47;0.63;;;0.50;;
41685;SDS011;27370;42.764;23.432;2023-04-03T16:01:12;0.52;;;0.52;;
41685;SDS011;27370;42.764;23.432;2023-04-03T16:03:39;0.40;;;0.40;;
41685;SDS011;27370;42.764;23.432;2023-04-03T16:06:13;0.85;;;0.85;;
41685;SDS011;27370;42.764;23.432;2023-04-03T16:08:41;0.70;;;0.57;;
41685;SDS011;27370;42.764;23.432;2023-04-03T16:11:07;0.93;;;0.88;;
41685;SDS011;27370;42.764;23.432;2023-04-03T16:13:33;1.75;;;1.20;;
41685;SDS011;27370;42.764;23.432;2023-04-03T16:15:59;0.63;;;0.63;;
41685;SDS011;27370;42.764;23.432;2023-04-03T16:18:25;0.45;;;0.45;;
41685;SDS011;27370;42.764;23.432;2023-04-03T16:20:51;1.42;;;1.20;;
41685;SDS011;27370;42.764;23.432;2023-04-03T16:23:17;3.33;;;2.88;;
41685;SDS011;27370;42.764;23.432;2023-04-03T16:25:43;3.80;;;1.95;;
41685;SDS011;27370;42.764;23.432;2023-04-03T16:28:11;4.25;;;2.95;;
41685;SDS011;27370;42.764;23.432;2023-04-03T16:30:41;0.95;;;0.95;;
41685;SDS011;27370;42.764;23.432;2023-04-03T16:33:08;2.38;;;2.17;;
41685;SDS011;27370;42.764;23.432;2023-04-03T16:35:34;2.75;;;1.67;;
41685;SDS011;27370;42.764;23.432;2023-04-03T16:38:00;1.90;;;1.30;;
41685;SDS011;27370;42.764;23.432;2023-04-03T16:40:25;6.53;;;2.53;;